Time;durP1;ratioP1;P1;durP2;ratioP2;P2;SDS_P1;SDS_P2;PMS_P1;PMS_P2;Temp;Humidity;BMP_temperature;BMP_pressure;BME280_temperature;BME280_humidity;BME280_pressure;Samples;Min_cycle;Max_cycle;Signal;HPM_P1;HPM_P2
2021/06/17 00:00:13;;;;;;;3.65;1.50;;;20.20;95.60;;;19.81;60.75;100724.28;5070961;28;20025;-59
2021/06/17 00:02:39;;;;;;;6.07;1.88;;;20.20;95.00;;;20.09;59.44;100711.75;5070674;28;20043;-57
2021/06/17 00:05:09;;;;;;;3.60;1.65;;;20.40;94.30;;;20.13;59.32;100718.25;5071156;28;20123;-57
2021/06/17 00:07:36;;;;;;;3.97;1.65;;;20.50;93.90;;;20.21;59.13;100709.31;5070702;28;20020;-57
2021/06/17 00:10:08;;;;;;;2.85;1.35;;;20.60;93.70;;;20.32;58.49;100711.34;5070591;28;20080;-58
2021/06/17 00:12:34;;;;;;;3.63;1.00;;;20.70;93.30;;;20.24;59.05;100705.47;5070760;28;20433;-59
2021/06/17 00:15:00;;;;;;;4.32;1.40;;;20.70;93.40;;;20.25;58.73;100704.44;5070629;28;20381;-59
2021/06/17 00:17:26;;;;;;;4.82;1.67;;;20.70;93.20;;;20.20;59.05;100703.22;5070461;28;20044;-61
2021/06/17 00:19:52;;;;;;;5.78;1.65;;;20.70;93.30;;;20.19;58.89;100706.88;5070478;28;20084;-57
2021/06/17 00:22:18;;;;;;;4.38;1.85;;;20.70;93.20;;;20.19;58.79;100698.94;5070567;28;20036;-60
2021/06/17 00:24:44;;;;;;;3.72;1.80;;;20.70;93.10;;;20.22;58.70;100703.03;5070429;28;20614;-57
2021/06/17 00:27:10;;;;;;;3.47;0.95;;;20.70;92.90;;;20.23;58.16;100699.34;5070270;28;20044;-57
2021/06/17 00:29:37;;;;;;;2.55;1.23;;;20.60;92.50;;;20.19;58.09;100706.88;5070252;28;20020;-60
2021/06/17 00:32:03;;;;;;;3.47;1.30;;;20.70;92.50;;;20.05;58.78;100710.50;5052233;28;20032;-58
2021/06/17 00:34:29;;;;;;;4.20;1.40;;;20.60;92.70;;;20.06;58.76;100706.84;5070544;28;20027;-55
2021/06/17 00:36:55;;;;;;;5.43;2.10;;;20.40;92.70;;;20.05;58.84;100702.56;5070080;28;20033;-59
2021/06/17 00:39:21;;;;;;;3.20;1.85;;;20.50;93.00;;;19.97;59.40;100701.94;5070185;28;20033;-54
2021/06/17 00:41:47;;;;;;;3.00;1.02;;;20.50;93.20;;;19.81;60.62;100703.16;5070198;28;20188;-55
2021/06/17 00:44:13;;;;;;;4.68;1.42;;;20.40;94.10;;;19.70;61.17;100704.53;5070035;28;20538;-55
2021/06/17 00:46:39;;;;;;;4.60;1.60;;;20.30;94.40;;;19.63;61.55;100695.75;5070090;28;20115;-57
2021/06/17 00:49:06;;;;;;;3.45;1.88;;;20.20;94.90;;;19.57;61.87;100691.25;5070420;28;20043;-55
2021/06/17 00:51:33;;;;;;;2.38;1.60;;;20.10;95.20;;;19.46;62.42;100695.25;5070362;28;20036;-56
2021/06/17 00:53:59;;;;;;;1.98;1.58;;;20.00;95.70;;;19.41;62.74;100702.13;5070180;28;20063;-57
2021/06/17 00:56:26;;;;;;;3.92;1.40;;;19.90;96.00;;;19.33;63.20;100692.56;5069803;28;20084;-58
2021/06/17 00:58:52;;;;;;;3.47;1.67;;;19.80;96.70;;;19.26;63.71;100691.72;5069578;28;20028;-57
2021/06/17 01:01:18;;;;;;;3.33;1.77;;;19.80;97.00;;;19.16;64.37;100700.00;5068305;28;20474;-52
2021/06/17 01:03:44;;;;;;;4.65;1.90;;;19.70;97.70;;;19.10;64.81;100713.16;5069933;28;20147;-57
2021/06/17 01:06:11;;;;;;;3.85;1.67;;;19.60;98.10;;;19.08;64.74;100696.69;5069761;28;20040;-56
2021/06/17 01:09:07;;;;;;;3.05;2.25;;;19.60;98.30;;;19.04;65.68;100688.31;5069466;28;20178;-55
2021/06/17 01:12:14;;;;;;;3.13;1.88;;;19.60;98.60;;;19.03;66.00;100684.06;5067447;28;20051;-56
2021/06/17 01:14:58;;;;;;;3.42;1.95;;;19.50;98.90;;;18.97;65.84;100689.28;5068271;28;20350;-55
2021/06/17 01:17:27;;;;;;;3.40;2.40;;;19.50;99.00;;;18.98;65.00;100688.28;5069459;28;20052;-53
2021/06/17 01:20:39;;;;;;;6.25;2.13;;;19.50;99.20;;;19.02;65.69;100677.16;5069111;28;20477;-53
2021/06/17 01:24:00;;;;;;;3.05;1.42;;;19.50;99.20;;;19.00;65.93;100667.78;5064665;28;20044;-58
2021/06/17 01:26:56;;;;;;;3.30;1.90;;;19.50;99.50;;;18.92;66.22;100667.94;5026410;28;20475;-54
2021/06/17 01:29:25;;;;;;;4.07;1.90;;;19.40;99.80;;;19.00;65.18;100665.97;5026577;28;20374;-55
2021/06/17 01:31:53;;;;;;;4.53;2.05;;;19.50;99.50;;;19.03;64.45;100668.22;5026156;28;20219;-57
2021/06/17 01:34:22;;;;;;;5.93;2.50;;;19.50;99.30;;;19.10;64.02;100660.34;5026273;28;20588;-58
2021/06/17 01:37:09;;;;;;;4.30;1.60;;;19.50;98.80;;;19.18;63.51;100665.47;5026249;28;20605;-58
2021/06/17 01:39:38;;;;;;;4.20;1.55;;;19.60;98.40;;;19.16;63.58;100660.38;5010574;28;20091;-52
2021/06/17 01:42:06;;;;;;;2.47;1.80;;;19.60;98.50;;;19.04;65.15;100664.56;5009681;28;20053;-60
2021/06/17 01:44:34;;;;;;;2.63;1.63;;;19.60;99.30;;;19.04;65.04;100661.09;5009770;28;20128;-54
2021/06/17 01:47:04;;;;;;;5.28;1.67;;;19.50;99.40;;;19.12;64.16;100663.59;4993221;28;20045;-52
2021/06/17 01:49:30;;;;;;;3.03;1.63;;;19.60;99.00;;;19.25;63.27;100650.47;5009436;28;20049;-59
2021/06/17 01:51:58;;;;;;;3.83;1.65;;;19.70;98.50;;;19.22;63.53;100648.22;5009569;28;20044;-56
2021/06/17 01:54:27;;;;;;;3.90;1.98;;;19.70;98.50;;;19.21;63.33;100651.88;5025896;28;20057;-56
2021/06/17 01:56:56;;;;;;;5.60;1.40;;;19.70;98.30;;;19.25;62.53;100653.09;5025886;28;20073;-60
2021/06/17 01:59:25;;;;;;;1.77;1.48;;;19.70;97.70;;;19.29;62.20;100646.41;5025741;28;20152;-59
2021/06/17 02:01:58;;;;;;;5.10;1.70;;;19.80;97.50;;;19.32;62.52;100646.03;5050579;28;20064;-57
2021/06/17 02:04:27;;;;;;;3.15;2.30;;;19.80;97.70;;;19.35;62.31;100640.34;5066995;28;20075;-58
2021/06/17 02:06:54;;;;;;;4.65;2.10;;;19.80;97.60;;;19.39;62.27;100646.03;5068666;28;20038;-54
2021/06/17 02:09:27;;;;;;;3.67;1.33;;;19.80;97.60;;;19.42;62.70;100658.84;5068202;28;20119;-49
2021/06/17 02:11:54;;;;;;;5.03;1.67;;;19.90;97.70;;;19.37;63.34;100633.03;5066607;28;20035;-53
2021/06/17 02:14:21;;;;;;;2.92;1.70;;;19.80;97.90;;;19.34;62.97;100636.06;5066901;28;20119;-58
2021/06/17 02:16:49;;;;;;;2.95;1.67;;;19.80;98.00;;;19.41;62.38;100636.06;5068234;28;20086;-53
2021/06/17 02:19:19;;;;;;;4.68;1.45;;;19.80;97.60;;;19.52;61.82;100630.25;5066789;28;20047;-59
2021/06/17 02:21:50;;;;;;;2.58;1.35;;;19.90;97.30;;;19.46;61.99;100631.81;5068241;28;20090;-59
2021/06/17 02:24:18;;;;;;;3.00;2.03;;;20.00;97.20;;;19.31;62.70;100639.13;5067958;28;20040;-57
2021/06/17 02:26:46;;;;;;;3.63;2.05;;;19.80;97.50;;;19.27;63.05;100631.78;5066532;28;20028;-58
2021/06/17 02:29:16;;;;;;;3.80;2.05;;;19.80;97.70;;;19.28;63.11;100628.94;5066816;28;20574;-56
2021/06/17 02:31:44;;;;;;;3.15;1.60;;;19.80;97.90;;;19.16;63.56;100633.16;5067954;28;20029;-55
2021/06/17 02:34:15;;;;;;;2.50;1.67;;;19.70;98.00;;;19.06;63.77;100627.41;5066540;28;20252;-58
2021/06/17 02:36:46;;;;;;;2.17;1.65;;;19.60;98.10;;;19.05;63.63;100625.78;5066200;28;20032;-54
2021/06/17 02:39:22;;;;;;;4.65;1.80;;;19.50;98.30;;;19.18;63.20;100625.84;5067940;28;20513;-55
2021/06/17 02:41:56;;;;;;;3.47;1.92;;;19.60;98.20;;;19.32;62.62;100619.59;5230985;22;20210;-57
2021/06/17 02:44:25;;;;;;;3.63;1.98;;;19.70;97.80;;;19.26;62.72;100623.03;5087787;28;20119;-56
2021/06/17 02:46:53;;;;;;;4.32;1.63;;;19.80;97.80;;;19.35;62.60;100628.97;5087961;28;20081;-56
2021/06/17 02:49:20;;;;;;;4.50;1.60;;;19.80;97.90;;;19.40;62.54;100621.22;5088044;28;20028;-58
2021/06/17 02:51:46;;;;;;;3.92;1.73;;;19.80;97.80;;;19.38;62.79;100634.63;5088021;28;20040;-58
2021/06/17 02:54:18;;;;;;;4.90;1.92;;;19.80;98.00;;;19.33;62.98;100633.63;5087828;28;20490;-58
2021/06/17 02:57:02;;;;;;;6.13;1.70;;;19.80;97.90;;;19.26;64.06;100614.28;5086304;28;20039;-57
2021/06/17 02:59:52;;;;;;;8.88;2.42;;;19.80;98.60;;;19.23;63.90;100628.72;5087752;28;20089;-58
2021/06/17 03:02:56;;;;;;;2.55;1.48;;;19.70;98.50;;;19.28;63.61;100623.66;5087816;28;20062;-56
2021/06/17 03:05:55;;;;;;;2.70;1.48;;;19.80;98.50;;;19.27;63.86;100629.94;5087858;28;20867;-57
2021/06/17 03:08:52;;;;;;;3.90;1.75;;;19.70;98.60;;;19.24;64.01;100622.41;5088001;28;20036;-59
2021/06/17 03:11:19;;;;;;;7.57;1.77;;;19.70;98.70;;;19.18;64.00;100618.72;5087813;28;20048;-57
2021/06/17 03:13:54;;;;;;;2.55;1.90;;;19.70;98.80;;;19.18;64.83;100617.91;5087888;28;20463;-54
2021/06/17 03:16:29;;;;;;;6.07;1.80;;;19.70;99.30;;;19.15;64.94;100616.47;5070261;28;20039;-57
2021/06/17 03:19:00;;;;;;;5.00;1.92;;;19.60;99.70;;;19.15;65.18;100618.31;5070574;28;20036;-61
2021/06/17 03:21:35;;;;;;;2.78;1.60;;;19.70;99.90;;;19.11;65.73;100617.06;5070170;28;20370;-55
2021/06/17 03:24:03;;;;;;;6.93;2.40;;;19.60;99.90;;;19.10;65.41;100613.63;5087500;28;20040;-57
2021/06/17 03:26:30;;;;;;;8.40;3.25;;;19.60;99.90;;;19.07;65.86;100615.81;5069545;28;20028;-55
2021/06/17 03:28:58;;;;;;;3.35;2.03;;;19.60;99.90;;;18.90;66.81;100616.16;5087667;28;20039;-57
2021/06/17 03:31:27;;;;;;;6.45;2.63;;;19.50;99.90;;;18.64;68.65;100616.00;5069391;28;20070;-53
2021/06/17 03:33:56;;;;;;;3.15;2.35;;;19.30;99.90;;;18.51;69.48;100611.41;5068920;28;20032;-57
2021/06/17 03:36:23;;;;;;;3.75;2.83;;;19.10;99.90;;;18.51;69.00;100615.88;5087414;28;20028;-58
2021/06/17 03:38:51;;;;;;;2.97;2.28;;;19.10;99.90;;;18.51;68.94;100613.25;5069348;28;20380;-56
2021/06/17 03:41:18;;;;;;;6.20;2.33;;;19.10;99.90;;;18.56;68.88;100618.75;5069688;28;20101;-57
2021/06/17 03:43:47;;;;;;;5.50;2.85;;;19.10;99.90;;;18.63;68.71;100608.28;5053242;28;20048;-54
2021/06/17 03:46:14;;;;;;;4.43;2.40;;;19.10;99.90;;;18.63;68.65;100610.91;5057458;28;20035;-56
2021/06/17 03:48:44;;;;;;;4.15;2.15;;;19.20;99.90;;;18.74;68.21;100621.75;5049148;28;20111;-54
2021/06/17 03:51:13;;;;;;;9.40;2.40;;;19.20;99.90;;;18.83;67.88;100614.50;5049096;28;20133;-58
2021/06/17 03:53:43;;;;;;;4.85;2.25;;;19.30;99.90;;;18.87;67.71;100613.94;5082458;28;20036;-59
2021/06/17 03:56:12;;;;;;;3.53;1.63;;;19.40;99.90;;;18.96;67.41;100619.03;5067448;28;20029;-58
2021/06/17 03:58:38;;;;;;;3.30;2.00;;;19.50;99.90;;;19.01;67.20;100613.97;5067136;28;20475;-57
2021/06/17 04:01:06;;;;;;;2.53;2.08;;;19.50;99.90;;;19.03;67.16;100612.75;5067314;28;20447;-57
2021/06/17 04:03:33;;;;;;;3.50;1.80;;;19.60;99.90;;;19.09;66.83;100621.72;5082156;28;20091;-55
2021/06/17 04:06:00;;;;;;;4.38;1.70;;;19.60;99.90;;;19.50;65.86;100621.69;5066798;28;20166;-54
2021/06/17 04:08:37;;;;;;;7.97;1.70;;;20.00;99.90;;;20.03;64.18;100619.97;5065287;28;20025;-55
2021/06/17 04:11:07;;;;;;;2.58;2.00;;;20.70;99.90;;;20.76;61.85;100628.72;5054926;28;20041;-57
2021/06/17 04:13:40;;;;;;;6.32;1.73;;;21.50;99.20;;;21.44;59.43;100634.41;5065461;28;20028;-57
2021/06/17 04:16:08;;;;;;;2.63;1.77;;;22.50;96.10;;;22.00;57.84;100624.88;5052347;28;20044;-58
2021/06/17 04:18:36;;;;;;;3.60;1.75;;;23.20;94.00;;;22.48;56.00;100617.16;5069346;28;20034;-60
2021/06/17 04:21:04;;;;;;;4.50;1.67;;;23.70;92.90;;;22.51;56.48;100622.03;5086853;28;20040;-56
2021/06/17 04:23:31;;;;;;;3.00;1.55;;;24.10;91.30;;;23.12;54.83;100618.53;5068620;28;20494;-55
2021/06/17 04:25:58;;;;;;;7.85;2.85;;;24.70;89.60;;;23.89;53.02;100616.06;5068928;28;20042;-57
2021/06/17 04:28:28;;;;;;;3.55;1.90;;;25.50;85.10;;;23.88;52.37;100617.94;5086900;28;20028;-59
2021/06/17 04:30:56;;;;;;;5.38;1.65;;;25.60;82.50;;;23.74;52.98;100619.97;5086764;28;20036;-58
2021/06/17 04:33:25;;;;;;;7.45;1.77;;;25.50;82.60;;;24.05;52.20;100621.56;5086948;28;20068;-60
2021/06/17 04:35:56;;;;;;;8.40;1.45;;;25.80;81.10;;;24.17;51.42;100622.34;5085526;28;20214;-60
2021/06/17 04:38:22;;;;;;;4.88;1.63;;;26.10;78.40;;;23.73;52.49;100626.31;5086930;28;20505;-57
2021/06/17 04:40:50;;;;;;;7.03;1.83;;;26.00;77.90;;;24.14;51.98;100622.81;5085099;28;20047;-57
2021/06/17 04:43:21;;;;;;;5.78;1.88;;;26.20;77.40;;;24.81;50.65;100620.63;5028431;28;20048;-58
2021/06/17 04:45:49;;;;;;;2.65;1.90;;;26.90;74.90;;;25.06;49.54;100624.88;5051672;28;20033;-60
2021/06/17 04:48:16;;;;;;;2.42;1.73;;;27.10;72.30;;;25.18;49.26;100628.34;5050687;28;20159;-60
2021/06/17 04:50:42;;;;;;;3.45;1.77;;;27.20;73.10;;;24.55;50.79;100628.31;5032157;28;20036;-58
2021/06/17 04:53:17;;;;;;;4.45;1.35;;;27.00;72.20;;;24.41;50.67;100633.88;5031977;28;20059;-59
2021/06/17 04:55:55;;;;;;;3.92;1.60;;;26.90;71.60;;;24.36;50.71;100636.41;5031714;28;20075;-57
2021/06/17 04:58:24;;;;;;;3.60;1.58;;;26.80;71.50;;;24.50;50.95;100639.66;5031684;28;20423;-58
2021/06/17 05:00:51;;;;;;;3.83;1.30;;;26.70;72.10;;;24.81;49.47;100636.63;5050202;28;20025;-57
2021/06/17 05:03:18;;;;;;;4.30;1.40;;;27.10;71.10;;;24.49;50.06;100632.72;5050082;28;20037;-58
2021/06/17 05:05:47;;;;;;;4.88;1.60;;;27.00;70.00;;;25.25;49.12;100637.00;5049984;28;20033;-58
2021/06/17 05:10:52;;;;;;;2.88;1.45;;;28.50;66.70;;;26.24;46.09;100637.44;5050126;28;20041;-57
2021/06/17 05:13:23;;;;;;;3.05;1.55;;;28.80;65.60;;;26.37;45.38;100631.00;5031794;28;20040;-59
2021/06/17 05:15:52;;;;;;;3.53;1.50;;;29.10;64.10;;;26.40;45.56;100631.31;5032207;28;20547;-59
2021/06/17 05:18:20;;;;;;;4.80;1.88;;;29.00;63.40;;;26.75;45.17;100633.66;5031551;28;20044;-59
2021/06/17 05:20:46;;;;;;;6.32;1.52;;;29.40;62.50;;;27.01;44.30;100650.06;5031300;28;20456;-56
2021/06/17 05:23:16;;;;;;;3.72;1.35;;;29.60;61.00;;;26.42;45.41;100641.75;5049680;28;20055;-59
2021/06/17 05:25:43;;;;;;;2.58;1.45;;;29.30;61.10;;;26.62;45.42;100639.38;5027964;28;20482;-58
2021/06/17 05:28:13;;;;;;;2.90;1.33;;;29.40;61.60;;;26.76;44.84;100656.66;5044903;28;20127;-59
2021/06/17 05:30:42;;;;;;;5.28;1.48;;;29.60;60.30;;;26.68;44.79;100651.75;5029543;28;20124;-59
2021/06/17 05:33:08;;;;;;;4.97;1.58;;;29.40;60.50;;;26.83;44.89;100639.66;5047669;28;20146;-60
2021/06/17 05:35:34;;;;;;;4.78;1.33;;;29.30;61.00;;;27.55;43.66;100647.47;5031224;28;20036;-62
2021/06/17 05:38:00;;;;;;;5.40;1.52;;;30.20;59.90;;;27.58;43.52;100646.97;5031087;28;20041;-59
2021/06/17 05:40:26;;;;;;;1.85;1.50;;;30.70;58.50;;;27.51;43.33;100644.47;5030866;28;20091;-60
2021/06/17 05:42:52;;;;;;;4.28;1.38;;;30.40;58.20;;;27.01;44.15;100655.41;5048677;28;20060;-59
2021/06/17 05:45:18;;;;;;;3.85;1.63;;;30.10;58.10;;;27.37;43.86;100646.75;5049514;28;20029;-59
2021/06/17 05:47:44;;;;;;;9.25;1.55;;;30.10;58.60;;;27.72;42.82;100648.22;5048748;28;20049;-59
2021/06/17 05:50:11;;;;;;;3.65;1.10;;;30.30;58.20;;;27.56;43.24;100651.75;5048978;28;20055;-58
2021/06/17 05:52:37;;;;;;;3.28;1.50;;;30.40;57.70;;;28.12;42.38;100652.28;5049275;28;20041;-60
2021/06/17 05:55:04;;;;;;;5.65;2.40;;;30.80;57.50;;;28.71;40.80;100650.31;5048986;28;20110;-59
2021/06/17 05:57:31;;;;;;;5.00;1.92;;;31.60;55.30;;;28.75;40.78;100656.78;5048677;28;20025;-60
2021/06/17 05:59:58;;;;;;;2.97;1.52;;;32.00;54.70;;;29.39;39.48;100660.00;5048904;28;20044;-59
2021/06/17 06:02:24;;;;;;;3.47;1.35;;;32.60;53.30;;;29.07;39.97;100659.34;5048611;28;20083;-59
2021/06/17 06:04:53;;;;;;;2.72;1.23;;;32.40;53.40;;;29.17;40.21;100667.44;5048837;28;20463;-60
2021/06/17 06:07:20;;;;;;;8.52;1.38;;;32.30;53.50;;;29.18;40.02;100673.63;5048850;28;20440;-63
2021/06/17 06:09:46;;;;;;;2.60;1.40;;;32.40;53.30;;;28.84;40.89;100660.56;5048586;28;20411;-61
2021/06/17 06:12:14;;;;;;;6.35;1.77;;;32.20;53.60;;;29.03;40.95;100664.44;5048487;28;20078;-60
2021/06/17 06:14:40;;;;;;;4.53;1.52;;;32.40;53.60;;;29.12;40.89;100656.69;5030337;28;20029;-60
2021/06/17 06:17:06;;;;;;;2.17;1.52;;;32.50;53.30;;;29.42;39.94;100663.25;5049643;28;20036;-62
2021/06/17 06:19:35;;;;;;;2.95;1.27;;;32.60;53.00;;;28.90;41.00;100669.47;5068188;28;20028;-59
2021/06/17 06:22:05;;;;;;;2.50;1.08;;;32.10;53.50;;;28.89;40.77;100673.22;5049941;28;20040;-61
2021/06/17 06:24:36;;;;;;;2.33;0.98;;;32.10;53.70;;;28.99;40.43;100673.25;5034024;28;20044;-59
2021/06/17 06:27:05;;;;;;;2.25;1.30;;;32.00;53.80;;;28.95;40.55;100678.34;5068237;28;20040;-59
2021/06/17 06:29:31;;;;;;;2.55;1.00;;;31.90;54.10;;;29.16;40.48;100684.63;5067844;28;20539;-59
2021/06/17 06:31:58;;;;;;;3.83;2.10;;;32.40;53.10;;;29.47;39.98;100685.53;5050076;28;20091;-63
2021/06/17 06:34:25;;;;;;;6.07;1.13;;;32.80;52.40;;;29.58;39.87;100691.75;5068107;28;20063;-59
2021/06/17 06:36:52;;;;;;;4.18;1.30;;;33.10;52.40;;;29.78;39.21;100690.97;5068134;28;20123;-61
2021/06/17 06:39:19;;;;;;;2.28;0.90;;;33.40;51.20;;;29.11;40.45;100681.91;5068126;28;20035;-62
2021/06/17 06:41:45;;;;;;;5.10;1.30;;;32.60;52.10;;;29.26;40.59;100690.03;5067916;28;20488;-60
2021/06/17 06:44:12;;;;;;;1.35;1.05;;;32.60;52.70;;;29.68;40.00;100686.41;5030041;28;20084;-60
2021/06/17 06:46:40;;;;;;;4.57;1.30;;;33.00;52.40;;;29.70;39.21;100685.06;5047685;28;20037;-61
2021/06/17 06:49:06;;;;;;;5.15;1.45;;;33.50;51.40;;;29.77;39.45;100682.13;5029917;28;20089;-59
2021/06/17 06:51:36;;;;;;;7.85;1.67;;;33.10;51.50;;;29.94;39.37;100684.53;5047701;28;20384;-60
2021/06/17 06:54:03;;;;;;;2.72;1.20;;;33.50;51.40;;;31.02;36.29;100692.25;5029521;28;20369;-61
2021/06/17 06:56:29;;;;;;;6.43;1.15;;;34.50;49.70;;;30.79;37.29;100684.78;5047444;28;20559;-59
2021/06/17 06:58:55;;;;;;;4.90;1.52;;;34.50;49.30;;;31.65;36.05;100684.44;5047478;28;20180;-61
2021/06/17 07:01:21;;;;;;;5.25;1.40;;;35.70;48.00;;;32.38;34.84;100679.03;5029485;28;20349;-59
2021/06/17 07:03:47;;;;;;;10.15;1.70;;;36.30;47.00;;;31.89;35.12;100687.25;5047488;28;20135;-60
2021/06/17 07:06:13;;;;;;;7.63;2.30;;;36.10;46.80;;;31.63;35.52;100690.09;5047660;28;20131;-60
2021/06/17 07:08:39;;;;;;;5.32;1.40;;;35.60;47.50;;;30.26;37.40;100697.75;5046561;28;20087;-61
2021/06/17 07:11:05;;;;;;;4.32;1.52;;;33.70;50.30;;;29.15;39.86;100699.09;5047660;28;20037;-60
2021/06/17 07:13:31;;;;;;;4.32;1.52;;;31.30;54.20;;;28.29;42.01;100701.22;5047282;28;20128;-59
2021/06/17 07:15:57;;;;;;;6.20;1.50;;;29.80;57.30;;;28.14;42.37;100703.75;5047230;28;20033;-61
2021/06/17 07:18:23;;;;;;;4.60;1.70;;;29.00;59.20;;;27.76;43.38;100697.50;5047344;28;20044;-62
2021/06/17 07:20:49;;;;;;;3.70;1.35;;;28.50;60.60;;;27.13;45.47;100704.22;5047405;28;20459;-61
2021/06/17 07:23:15;;;;;;;2.88;1.40;;;28.10;62.30;;;27.19;45.34;100703.25;5047253;28;20033;-61
2021/06/17 07:25:42;;;;;;;6.45;1.67;;;27.80;63.40;;;27.38;45.52;100707.25;5047201;28;20068;-60
2021/06/17 07:28:08;;;;;;;3.72;1.58;;;27.80;64.10;;;27.09;46.36;100705.78;5029291;28;20373;-63
2021/06/17 07:30:35;;;;;;;5.70;2.22;;;27.60;64.60;;;27.27;45.64;100710.84;5047320;28;20025;-59
2021/06/17 07:33:01;;;;;;;2.72;1.50;;;27.70;64.50;;;27.33;45.49;100706.38;5047124;28;20539;-61
2021/06/17 07:35:27;;;;;;;3.15;1.67;;;27.80;64.40;;;27.33;45.64;100703.69;5047212;28;20062;-59
2021/06/17 07:37:53;;;;;;;5.50;1.50;;;27.70;64.80;;;27.49;45.30;100710.00;5047372;28;20059;-59
2021/06/17 07:40:20;;;;;;;4.60;1.15;;;27.90;64.70;;;27.79;44.85;100710.38;5047232;28;20061;-61
2021/06/17 07:42:47;;;;;;;5.15;1.42;;;28.10;64.50;;;28.07;43.73;100717.34;5055072;28;20053;-61
2021/06/17 07:45:14;;;;;;;4.10;1.70;;;28.20;64.00;;;27.93;44.22;100706.22;5046866;28;20089;-59
2021/06/17 07:47:41;;;;;;;1.90;1.25;;;28.30;64.10;;;27.79;44.23;100702.34;5067907;28;20177;-59
2021/06/17 07:50:10;;;;;;;4.00;1.70;;;28.20;63.70;;;28.28;43.26;100710.31;5047465;28;20033;-60
2021/06/17 07:52:37;;;;;;;6.07;2.17;;;28.50;63.30;;;28.32;43.02;100708.75;5067010;28;20028;-61
2021/06/17 07:55:06;;;;;;;6.70;1.52;;;28.80;62.60;;;28.42;42.80;100708.81;5051961;28;20402;-61
2021/06/17 07:57:32;;;;;;;9.27;2.05;;;28.90;62.50;;;28.34;43.04;100715.47;5067327;28;20128;-62
2021/06/17 07:59:58;;;;;;;6.80;1.90;;;28.80;62.40;;;29.02;41.83;100707.59;5049448;28;20037;-63
2021/06/17 08:02:26;;;;;;;5.60;1.63;;;29.20;62.10;;;29.01;42.20;100714.84;5045622;28;20029;-59
2021/06/17 08:04:52;;;;;;;10.48;2.13;;;29.30;62.30;;;28.96;42.08;100717.50;5050202;28;20039;-61
2021/06/17 08:07:18;;;;;;;3.13;1.75;;;29.40;61.70;;;28.77;41.63;100718.19;5066042;28;20131;-61
2021/06/17 08:09:44;;;;;;;5.95;2.05;;;29.40;60.90;;;28.67;41.62;100719.72;5064269;28;20060;-62
2021/06/17 08:12:10;;;;;;;2.55;1.60;;;29.20;60.90;;;29.08;41.21;100719.97;5065435;28;20117;-62
2021/06/17 08:14:36;;;;;;;2.60;1.50;;;29.40;61.10;;;29.35;40.45;100715.25;5069948;28;20120;-62
2021/06/17 08:17:03;;;;;;;3.63;1.60;;;29.60;60.60;;;29.64;40.43;100723.72;5068116;28;20033;-63
2021/06/17 08:19:29;;;;;;;6.40;1.92;;;29.80;60.80;;;29.74;40.08;100725.63;5068342;28;20039;-64
2021/06/17 08:22:05;;;;;;;3.42;1.70;;;29.90;60.40;;;30.21;39.42;100727.31;5050179;28;20116;-62
2021/06/17 08:24:45;;;;;;;2.78;1.45;;;30.30;60.00;;;30.65;38.61;100716.84;5059325;28;20110;-64
2021/06/17 08:27:12;;;;;;;12.18;1.85;;;30.80;59.40;;;30.88;37.20;100726.19;5049469;28;20076;-63
2021/06/17 08:29:38;;;;;;;4.30;2.03;;;31.10;57.80;;;30.94;37.08;100722.41;5070483;28;20387;-62
2021/06/17 08:32:05;;;;;;;3.97;1.90;;;31.20;57.50;;;30.90;37.31;100707.88;5070313;28;20040;-61
2021/06/17 08:34:31;;;;;;;7.40;2.28;;;31.20;57.70;;;30.93;37.10;100710.03;5070036;28;20029;-61
2021/06/17 08:36:58;;;;;;;2.45;1.65;;;31.20;57.70;;;30.69;37.80;100707.97;5070322;28;20115;-62
2021/06/17 08:39:24;;;;;;;1.80;1.50;;;31.00;57.90;;;31.07;37.26;100702.19;5069926;28;20368;-63
2021/06/17 08:41:51;;;;;;;3.92;1.70;;;31.20;57.20;;;31.28;36.60;100701.84;5051849;28;20041;-61
2021/06/17 08:44:17;;;;;;;4.85;1.10;;;31.50;56.80;;;31.10;35.51;100710.53;5070379;28;20060;-61
2021/06/17 08:46:43;;;;;;;3.47;1.33;;;31.50;55.50;;;31.16;35.32;100708.66;5070072;28;20028;-62
2021/06/17 08:49:09;;;;;;;5.10;1.27;;;31.40;55.30;;;31.50;34.58;100703.38;5069975;28;20033;-61
2021/06/17 08:51:40;;;;;;;6.18;1.70;;;31.60;54.10;;;31.50;34.75;100712.25;5070020;28;20047;-62
2021/06/17 08:54:07;;;;;;;5.07;1.65;;;31.70;54.20;;;31.39;34.39;100699.91;5051890;28;20041;-62
2021/06/17 08:56:35;;;;;;;2.03;1.30;;;31.70;54.10;;;31.81;33.74;100699.41;5069917;28;20032;-62
2021/06/17 08:59:01;;;;;;;6.35;1.55;;;32.00;53.70;;;31.99;32.69;100698.75;5069919;28;20077;-61
2021/06/17 09:01:27;;;;;;;1.58;1.10;;;32.30;52.10;;;32.07;31.72;100696.56;5051452;28;20055;-62
2021/06/17 09:03:54;;;;;;;4.03;1.27;;;32.40;51.40;;;32.25;31.75;100693.97;5069997;28;20032;-62
2021/06/17 09:06:23;;;;;;;4.20;1.17;;;32.50;51.40;;;32.51;31.72;100689.16;5068290;28;20046;-63
2021/06/17 09:09:04;;;;;;;1.38;1.25;;;32.80;51.00;;;32.03;32.27;100690.13;5069737;28;20144;-62
2021/06/17 09:11:30;;;;;;;2.70;1.25;;;32.50;51.10;;;31.70;33.11;100686.28;5068746;28;20033;-61
2021/06/17 09:14:18;;;;;;;14.00;1.42;;;32.20;51.50;;;31.91;32.55;100693.97;5073268;28;20035;-61
2021/06/17 09:16:59;;;;;;;6.28;1.48;;;32.30;51.40;;;31.18;33.90;100691.16;5052223;28;20178;-60
2021/06/17 09:19:45;;;;;;;3.97;1.40;;;31.80;52.20;;;31.19;34.36;100684.69;5070187;28;20033;-60
2021/06/17 09:22:15;;;;;;;3.80;1.42;;;31.50;53.20;;;31.56;33.65;100688.81;5070128;28;20046;-61
2021/06/17 09:24:46;;;;;;;5.25;1.30;;;31.80;53.30;;;31.78;32.96;100681.13;5070506;28;20032;-60
2021/06/17 09:27:39;;;;;;;2.78;0.98;;;32.00;52.30;;;31.99;31.19;100682.59;5070178;28;20338;-61
2021/06/17 09:30:11;;;;;;;2.40;1.60;;;32.30;51.00;;;31.70;32.35;100691.69;5051976;28;20044;-60
2021/06/17 09:32:53;;;;;;;3.88;1.90;;;32.00;50.80;;;31.65;31.52;100687.13;5069900;28;20446;-61
2021/06/17 09:35:21;;;;;;;5.45;1.30;;;32.00;51.20;;;31.41;33.44;100697.75;5051879;28;20068;-61
2021/06/17 09:37:47;;;;;;;2.75;1.13;;;31.80;51.90;;;31.62;32.92;100687.69;5051996;28;20119;-61
2021/06/17 09:40:32;;;;;;;3.95;1.40;;;31.80;51.80;;;31.86;32.67;100699.38;5070026;28;20036;-61
2021/06/17 09:43:28;;;;;;;3.03;0.82;;;32.00;51.70;;;31.50;30.80;100687.22;5069661;28;20122;-61
2021/06/17 09:46:02;;;;;;;2.00;0.85;;;31.90;49.00;;;32.21;30.56;100689.41;5051604;28;20032;-61
2021/06/17 09:48:32;;;;;;;1.48;0.73;;;32.30;50.10;;;32.25;30.27;100693.19;5069863;28;20032;-60
2021/06/17 09:50:58;;;;;;;1.63;0.73;;;32.50;49.50;;;32.02;30.58;100688.50;5069479;28;20076;-60
2021/06/17 09:53:28;;;;;;;4.78;1.10;;;32.30;49.10;;;31.49;30.08;100691.00;5069384;28;20040;-61
2021/06/17 09:55:54;;;;;;;2.20;1.02;;;31.90;47.90;;;31.37;31.43;100693.19;5069237;28;20163;-60
2021/06/17 09:58:38;;;;;;;5.88;0.90;;;31.70;49.10;;;31.28;30.79;100691.09;5069464;28;20435;-61
2021/06/17 10:01:14;;;;;;;3.63;1.00;;;31.60;48.90;;;31.64;31.27;100682.81;5069493;28;20372;-61
2021/06/17 10:03:41;;;;;;;9.73;1.95;;;31.80;49.70;;;31.98;30.40;100681.00;5036458;28;20187;-61
2021/06/17 10:06:27;;;;;;;3.00;1.10;;;32.00;48.80;;;31.59;29.69;100682.84;5069282;28;20024;-62
2021/06/17 10:08:54;;;;;;;2.88;1.00;;;31.90;48.10;;;32.00;30.37;100678.81;5066614;28;20124;-61
2021/06/17 10:11:22;;;;;;;3.03;1.08;;;32.10;48.60;;;31.96;30.66;100677.75;5069669;28;20037;-62
2021/06/17 10:13:49;;;;;;;3.58;0.80;;;32.10;48.70;;;32.14;29.71;100670.09;5045190;28;20059;-62
2021/06/17 10:16:18;;;;;;;1.38;0.80;;;32.30;48.10;;;32.31;28.79;100665.09;5069431;28;20079;-62
2021/06/17 10:18:45;;;;;;;1.38;0.95;;;32.50;46.80;;;32.10;28.42;100671.75;5051612;28;20037;-63
2021/06/17 10:21:17;;;;;;;1.95;0.70;;;32.30;46.70;;;32.27;28.30;100655.97;5068426;28;20056;-63
2021/06/17 10:23:46;;;;;;;2.90;0.90;;;32.50;46.80;;;32.06;28.81;100655.31;5045854;28;20064;-62
2021/06/17 10:26:13;;;;;;;2.90;0.80;;;32.40;46.50;;;32.07;28.56;100650.75;5030149;28;20124;-60